Inhaltsbereich

METAR / TAF

Die METAR- und TAF-Liste ist aus technischen Gründen (Verfügbarkeit, Update-Zyklen) nicht für ein Meteo-Briefing gedacht. Benutzen Sie stattdessen skybriefing der Skyguide  oder das TAMSI (MeteoSchweiz-eigene Meteo Selfbriefing-Plattform für Firmen aus der Aviatik; Anfragen über das

Kontaktformular

METAR Schweiz

METAR     LFSB 231730Z AUTO 26012KT 230V290 9999 SCT041 BKN100 OVC120
               21/14 Q1005 TEMPO 4000 SHRA FEW050TCU=
METAR     LSGC 231650Z 25010KT 200V280 9999 -RA SCT021TCU 15/11
               Q1008=
METAR     LSGC 231720Z 24010KT 180V310 9999 -SHRA SCT017TCU 14/11
               Q1008=
METAR     LSGG 231650Z 20010KT 9999 -SHRA SCT040 FEW050CB BKN060
               21/12 Q1007 TEMPO TS=
METAR     LSGG 231720Z 20010KT 9999 -SHRA SCT035 FEW050CB BKN060
               20/12 Q1007 TEMPO TS=
METAR     LSGS 231650Z 25019G30KT 220V290 9999 -RA FEW090 SCT120TCU
               21/13 Q1003=
METAR     LSGS 231720Z 24015KT 9999 FEW090 SCT120TCU 22/12 Q1003=
METAR     LSMA 231650Z AUTO VRB02KT 9999NDV BKN052 BKN061 18/16 Q1006
               RMK=
METAR     LSMA 231720Z AUTO 23003KT 200V260 9999NDV SCT062 BKN084
               18/16 Q1006 RMK=
METAR     LSMD 231650Z 15007KT 9999 SCT045 SCT054 BKN062 18/15 Q1006
               RMK BLU=
METAR     LSMD 231720Z 15006KT 9999 BKN043 BKN054 17/16 Q1006 RMK
               BLU=
METAR     LSME 231650Z 20004KT 150V230 9999 -SHRA BKN051 OVC063 18/18
               Q1006 RMK BLU=
METAR     LSME 231720Z VRB03KT 9999 FEW051 BKN059 18/18 Q1006 RMK
               BLU=
METAR     LSMM 231650Z AUTO 00000KT 9999NDV -SHRA FEW055 BKN078 18/15
               Q1007 RMK=
METAR     LSMM 231720Z AUTO VRB02KT 9999NDV -SHRA BKN054 18/15 Q1007
               RMK=
METAR     LSMP 231650Z 24013KT 200V270 9999 BKN062 BKN078 21/11 Q1006
               RMK BLU=
METAR     LSMP 231720Z 20010KT 170V230 9999 SHRA FEW024 SCT037 BKN068
               18/14 Q1006 RMK BLU=
METAR     LSZA 231650Z AUTO 20007KT 9999 SCT048CB 26/15 Q1005=
METAR     LSZA 231720Z AUTO 20006KT 9999 //////TCU 25/13 Q1006=
METAR     LSZB 231650Z VRB02KT 9999 BKN055 19/17 Q1006=
METAR     LSZB 231720Z VRB02KT 9999 BKN055TCU BKN065 19/17 Q1006
               NOSIG=
METAR     LSZC 231650Z AUTO 24004KT 220V300 9999 VCTS OVC055CB 18/16
               Q1007=
METAR     LSZC 231720Z AUTO 29004KT 250V330 9999 OVC055CB 18/15
               Q1007=
METAR     LSZG 231650Z 07003KT 9999 FEW060 OVC070 20/16 Q1005=
METAR     LSZG 231720Z 24006KT 9999 RA BKN060 20/14 Q1006=
METAR     LSZH 231650Z 16006KT 130V210 9999 FEW009 SCT060 18/16 Q1006
               NOSIG=
METAR     LSZH 231720Z 18004KT 140V220 9999 FEW030 BKN039 18/16 Q1006
               NOSIG=
METAR     LSZL 231650Z AUTO 27004KT 230V320 9999NDV BKN051 24/17
               Q1005 RMK=
METAR RRA LSZL 231720Z AUTO 31003KT 260V010 9999NDV BKN056 25/17
               Q1005 RMK=
METAR     LSZR 231650Z 12006KT 080V230 9999 -RA FEW050TCU SCT095
               BKN100 16/14 Q1007 RMK P=
METAR     LSZR 231720Z VRB01KT CAVOK 17/15 Q1006 RMK Q=
METAR     LSZS 231650Z 25004KT 200V290 9999 VCTS BKN065 SCT075CB
               15/11 Q1010 RMK W TL180=
METAR     LSZS 231720Z AUTO 16008KT 140V260 3800 +TSRA BR SCT050CB
               BKN060 BKN070 12/09 Q1011=
Aktualisiert am Montag, 23. Mai 2022, 19:43 Uhr

TAF Schweiz

TAF     LFSB 231100Z 2312/2412 VRB05KT 9999 FEW040CB BECMG 2312/2314
             27012KT TEMPO 2312/2318 28015G30KT 2000 TSRA BKN035CB
             PROB30 TEMPO 2313/2316 VRB20G40KT 1000 +TSRAGR BECMG
             2318/2321 NSC PROB40 TEMPO 2318/2320 SHRA TEMPO
             2322/2405 VRB04KT PROB40 TEMPO 2400/2410 -SHRA TEMPO
             2405/2411 27012G22KT=
TAF AAA LFSB 231550Z 2315/2412 27012KT 9999 FEW050TCU BKN110 TEMPO
             2315/2318 27015G25KT TEMPO 2316/2409 -SHRA BKN050 PROB40
             TEMPO 2315/2318 SHRA FEW050CB BECMG 2318/2321 NSC TEMPO
             2405/2411 27012G22KT=
TAF RRA LSGC 231425Z 2315/2324 27012KT 9999 SCT045=
TAF RRA LSGG 231425Z 2315/2421 22010KT 9999 FEW060 SCT090 TX24/2315Z
             TN14/2405Z TX21/2415Z=
TAF RRA LSGS 231425Z 2315/2324 25012KT 9999 FEW100 SCT150 BECMG
             2318/2320 VRB02KT=
TAF     LSMA 230925Z 2310/2416 VRB02KT CAVOK BECMG 2310/2314 9999
             SCT060TCU TEMPO 2311/2410 SHRA TEMPO 2311/2321
             30015G25KT 4000 TSRA SCT040CB PROB30 TEMPO 2313/2317
             30018G30KT 2500 TSGR BKN025CB=
TAF AAB LSMA 231152Z 2311/2416 05018G32KT 9999 FEW065 BECMG 2311/2314
             SCT060TCU TEMPO 2311/2410 SHRA TEMPO 2311/2321
             30015G25KT 4000 TSRA SCT040CB PROB30 TEMPO 2313/2317
             30018G30KT 2500 TSGR BKN025CB=
TAF     LSMD 230925Z 2310/2416 VRB02KT CAVOK BECMG 2310/2313 9999
             SCT060TCU TEMPO 2313/2409 SHRA TEMPO 2313/2318
             29015G25KT 4000 TSRA SCT040CB PROB30 TEMPO 2314/2317
             31018G30KT 2500 TSGR BKN025CB=
TAF AAC LSMD 231155Z 2311/2416 30005KT 9999 FEW035 BECMG 2311/2313
             SCT060TCU TEMPO 2313/2409 SHRA TEMPO 2313/2318
             29015G25KT 4000 TSRA SCT040CB PROB30 TEMPO 2314/2317
             31018G30KT 2500 TSGR BKN025CB=
TAF     LSME 230925Z 2310/2416 VRB01KT CAVOK BECMG 2310/2313 9999
             SCT060TCU TEMPO 2313/2409 SHRA TEMPO 2313/2318
             29015G25KT 4000 TSRA SCT040CB PROB30 TEMPO 2314/2317
             31018G30KT 2500 TSGR BKN025CB=
TAF     LSMM 230925Z 2310/2416 09005KT CAVOK BECMG 2310/2314
             SCT060TCU TEMPO 2311/2410 SHRA TEMPO 2311/2321
             27015G25KT 4000 TSRA SCT040CB PROB30 TEMPO 2313/2317
             31018G30KT 2500 TSGR BKN025CB=
TAF     LSMP 230925Z 2310/2416 VRB02KT 9999 FEW060 BECMG 2310/2313
             23010KT PROB40 TEMPO 2312/2318 26015G30KT TSRA FEW050CB
             BKN060 PROB30 TEMPO 2406/2409 SHRA BKN050=
TAF     LSZA 231425Z 2315/2324 18008KT 9999 BKN030 PROB40 TEMPO
             2315/2324 SHRA SCT040TCU PROB40 TEMPO 2315/2321 4000
             TSRA SCT040CB=
TAF     LSZB 231425Z 2315/2324 27006KT 9999 FEW040 SCT120 PROB40
             TEMPO 2315/2324 SHRA FEW050TCU=
TAF     LSZC 231425Z 2315/2324 VRB03KT 9999 FEW015 BKN040 TEMPO
             2315/2319 22015G25KT 4000 TSRA SCT040CB PROB30 TEMPO
             2315/2316 22020G35KT 2500 TSGR BKN025CB PROB30 TEMPO
             2319/2321 TSRA FEW040CB=
TAF     LSZG 231425Z 2315/2324 20012KT 9999 FEW030 SCT050 BKN080
             PROB30 2315/2316 29020G40KT 2000 +TSGRRA SCT040CB PROB30
             TEMPO 2316/2318 23015G25KT SHRA FEW030TCU=
TAF     LSZH 231425Z 2315/2421 24006KT 9999 FEW040 TX21/2315Z
             TN14/2406Z TX18/2414Z TEMPO 2315/2412 29010KT SHRA
             PROB30 TEMPO 2315/2318 29015G25KT 4000 TSRA SCT040CB=
TAF     LSZL 231125Z 2312/2321 VRB02KT 9999 BKN050 PROB40 TEMPO
             2314/2321 26015G25KT TSRA SCT040CB=
TAF     LSZR 231425Z 2315/2324 VRB02KT 9999 FEW050 PROB40 TEMPO
             2315/2317 28015G30KT 4000 TSRA SCT040CB PROB40 TEMPO
             2315/2324 17010KT SHRA FEW050TCU=
TAF     LSZS 231425Z 2315/2324 21015KT 9999 SCT070 TX19/2315Z PROB40
             TEMPO 2315/2324 SHRA SCT040TCU PROB30 TEMPO 2315/2321
             30015G28KT TSRA SCT040CB=
Aktualisiert am Montag, 23. Mai 2022, 18:07 Uhr